createdAt,value
2022-08-05T00:00:28.641Z,100701.16
2022-08-05T00:01:30.626Z,100700.33
2022-08-05T00:02:35.047Z,100694.17
2022-08-05T00:03:37.052Z,100702.13
2022-08-05T00:04:40.186Z,100695.02
2022-08-05T00:06:06.507Z,100692.44
2022-08-05T00:06:47.063Z,100695.09
2022-08-05T00:07:59.836Z,100697.73
2022-08-05T00:08:53.171Z,100703.98
2022-08-05T00:09:55.114Z,100697.80
2022-08-05T00:10:57.067Z,100693.44
2022-08-05T00:12:00.861Z,100702.30
2022-08-05T00:13:04.249Z,100697.00
2022-08-05T00:14:13.071Z,100701.44
2022-08-05T00:15:54.343Z,100702.36
2022-08-05T00:16:16.049Z,100691.76
2022-08-05T00:17:20.255Z,100701.50
2022-08-05T00:18:22.705Z,100703.32
2022-08-05T00:19:33.511Z,100696.27
2022-08-05T00:20:29.043Z,100697.17
2022-08-05T00:21:35.630Z,100695.49
2022-08-05T00:22:35.647Z,100699.94
2022-08-05T00:23:46.579Z,100700.84
2022-08-05T00:24:42.502Z,100697.34
2022-08-05T00:25:45.936Z,100702.64
2022-08-05T00:26:51.909Z,100701.76
2022-08-05T00:27:52.167Z,100698.26
2022-08-05T00:28:55.965Z,100699.11
2022-08-05T00:29:57.915Z,100699.16
2022-08-05T00:31:04.318Z,100693.88
2022-08-05T00:32:13.295Z,100694.81
2022-08-05T00:34:41.991Z,100696.52
2022-08-05T00:34:54.081Z,100700.11
2022-08-05T00:35:16.483Z,100699.23
2022-08-05T00:37:13.075Z,100692.28
2022-08-05T00:37:24.759Z,100694.93
2022-08-05T00:38:30.780Z,100701.08
2022-08-05T00:39:37.021Z,100698.48
2022-08-05T00:40:34.553Z,100692.34
2022-08-05T00:41:51.529Z,100694.98
2022-08-05T00:42:42.862Z,100689.69
2022-08-05T00:43:49.889Z,100698.48
2022-08-05T00:44:50.459Z,100689.62
2022-08-05T00:45:53.427Z,100697.63
2022-08-05T00:47:02.205Z,100693.19
2022-08-05T00:48:05.671Z,100694.98
2022-08-05T00:49:03.377Z,100694.98
2022-08-05T00:50:06.161Z,100699.39
2022-08-05T00:51:09.015Z,100692.39
2022-08-05T00:52:12.075Z,100698.55
2022-08-05T00:54:01.063Z,100698.55
2022-08-05T00:54:18.369Z,100701.19
2022-08-05T00:55:20.325Z,100695.89
2022-08-05T00:56:23.106Z,100699.39
2022-08-05T00:57:38.071Z,100692.39
2022-08-05T00:58:29.462Z,100692.39
2022-08-05T00:59:34.635Z,100698.55
2022-08-05T01:00:35.359Z,100696.75
2022-08-05T01:01:42.596Z,100699.39
2022-08-05T01:02:41.666Z,100695.89
2022-08-05T01:03:45.467Z,100701.19
2022-08-05T01:04:50.316Z,100701.19
2022-08-05T01:05:54.456Z,100702.10
2022-08-05T01:06:56.544Z,100697.69
2022-08-05T01:08:42.039Z,100704.75
2022-08-05T01:09:03.132Z,100705.69
2022-08-05T01:10:05.369Z,100705.69
2022-08-05T01:11:09.169Z,100702.16
2022-08-05T01:12:18.525Z,100707.45
2022-08-05T01:13:22.174Z,100713.70
2022-08-05T01:14:27.933Z,100707.52
2022-08-05T01:15:36.449Z,100707.52
2022-08-05T01:16:28.144Z,100716.39
2022-08-05T01:17:31.633Z,100721.70
2022-08-05T01:18:35.426Z,100725.25
2022-08-05T01:20:01.136Z,100715.57
2022-08-05T01:20:42.199Z,100719.10
2022-08-05T01:21:45.997Z,100727.95
2022-08-05T01:22:51.022Z,100722.72
2022-08-05T01:23:53.240Z,100724.51
2022-08-05T01:24:56.564Z,100719.41
2022-08-05T01:25:58.514Z,100731.63
2022-08-05T01:27:17.539Z,100726.38
2022-08-05T01:28:05.493Z,100732.59
2022-08-05T01:29:09.288Z,100727.34
2022-08-05T01:30:17.699Z,100731.79
2022-08-05T01:31:15.752Z,100729.20
2022-08-05T01:32:18.654Z,100732.75
2022-08-05T01:33:20.888Z,100735.41
2022-08-05T01:34:26.808Z,100729.36
2022-08-05T01:35:51.832Z,100733.80
2022-08-05T01:36:32.682Z,100742.59
2022-08-05T01:37:36.572Z,100737.36
2022-08-05T01:38:38.635Z,100732.97
2022-08-05T01:39:47.262Z,100734.84
2022-08-05T01:40:44.584Z,100738.39
2022-08-05T01:41:46.545Z,100735.80
2022-08-05T01:42:50.337Z,100738.50
2022-08-05T01:43:52.290Z,100735.00
2022-08-05T01:44:54.758Z,100743.00
2022-08-05T01:45:57.187Z,100736.88
2022-08-05T01:46:59.986Z,100740.46
2022-08-05T01:48:01.937Z,100737.86
2022-08-05T01:49:22.717Z,100738.72
2022-08-05T01:50:08.818Z,100742.27
2022-08-05T01:51:13.065Z,100740.52
2022-08-05T01:52:17.826Z,100732.63
2022-08-05T01:53:54.928Z,100733.59
2022-08-05T01:54:25.672Z,100738.02
2022-08-05T01:55:26.363Z,100736.28
2022-08-05T01:58:12.658Z,100732.89
2022-08-05T01:58:12.659Z,100728.45
2022-08-05T01:58:44.717Z,100736.45
2022-08-05T01:59:39.703Z,100735.59
2022-08-05T02:00:41.757Z,100726.77
2022-08-05T02:01:45.598Z,100739.09
2022-08-05T02:02:53.582Z,100732.06
2022-08-05T02:03:51.504Z,100732.06
2022-08-05T02:04:53.559Z,100728.56
2022-08-05T02:05:59.845Z,100728.56
2022-08-05T02:06:59.408Z,100737.35
2022-08-05T02:08:01.970Z,100729.41
2022-08-05T02:09:04.136Z,100733.91
2022-08-05T02:10:08.749Z,100730.41
2022-08-05T02:11:11.640Z,100727.70
2022-08-05T02:12:14.804Z,100730.35
2022-08-05T02:13:17.165Z,100732.11
2022-08-05T02:14:19.734Z,100731.26
2022-08-05T02:15:21.685Z,100729.47
2022-08-05T02:16:23.640Z,100733.91
2022-08-05T02:18:28.451Z,100733.00
2022-08-05T02:18:34.301Z,100731.26
2022-08-05T02:19:34.144Z,100728.61
2022-08-05T02:20:39.152Z,100731.26
2022-08-05T02:21:43.430Z,100725.11
2022-08-05T02:22:44.466Z,100722.47
2022-08-05T02:23:48.467Z,100725.06
2022-08-05T02:24:51.480Z,100727.76
2022-08-05T02:25:54.214Z,100724.17
2022-08-05T02:26:56.477Z,100725.97
2022-08-05T02:28:00.477Z,100716.29
2022-08-05T02:29:02.528Z,100725.97
2022-08-05T02:30:06.325Z,100722.47
2022-08-05T02:31:14.303Z,100723.32
2022-08-05T02:32:12.689Z,100728.61
2022-08-05T02:33:16.381Z,100726.82
2022-08-05T02:34:20.179Z,100722.47
2022-08-05T02:35:32.950Z,100724.13
2022-08-05T02:36:31.152Z,100717.12
2022-08-05T02:37:32.088Z,100726.77
2022-08-05T02:38:35.488Z,100720.62
2022-08-05T02:39:37.707Z,100722.41
2022-08-05T02:40:41.516Z,100721.48
2022-08-05T02:41:58.199Z,100716.19
2022-08-05T02:42:53.911Z,100724.13
2022-08-05T02:44:06.098Z,100729.41
2022-08-05T02:44:57.215Z,100717.98
2022-08-05T02:46:01.134Z,100728.56
2022-08-05T02:47:04.156Z,100726.77
2022-08-05T02:48:11.420Z,100725.06
2022-08-05T02:49:11.075Z,100722.41
2022-08-05T02:50:13.429Z,100722.47
2022-08-05T02:51:15.394Z,100728.61
2022-08-05T02:52:29.475Z,100725.11
2022-08-05T02:53:21.126Z,100722.47
2022-08-05T02:54:36.018Z,100724.23
2022-08-05T02:55:54.766Z,100725.97
2022-08-05T02:56:30.668Z,100718.88
2022-08-05T02:58:10.420Z,100727.70
2022-08-05T02:58:36.824Z,100724.17
2022-08-05T02:59:50.256Z,100723.27
2022-08-05T03:02:11.491Z,100726.77
2022-08-05T03:03:13.365Z,100728.66
2022-08-05T03:04:15.801Z,100727.76
2022-08-05T03:05:17.933Z,100732.16
2022-08-05T03:06:57.820Z,100732.11
2022-08-05T03:08:01.430Z,100733.00
2022-08-05T03:08:30.135Z,100731.20
2022-08-05T03:09:37.453Z,100737.35
2022-08-05T03:10:36.088Z,100733.85
2022-08-05T03:11:55.241Z,100731.20
2022-08-05T03:12:42.937Z,100734.70
2022-08-05T03:13:52.172Z,100744.38
2022-08-05T03:14:48.813Z,100738.23
2022-08-05T03:15:51.863Z,100740.00
2022-08-05T03:16:54.663Z,100741.79
2022-08-05T03:17:57.570Z,100738.30
2022-08-05T03:18:59.797Z,100740.94
2022-08-05T03:20:02.570Z,100739.14
2022-08-05T03:21:04.530Z,100739.14
2022-08-05T03:22:16.388Z,100742.70
2022-08-05T03:23:12.046Z,100736.50
2022-08-05T03:24:14.681Z,100736.45
2022-08-05T03:25:33.821Z,100737.35
2022-08-05T03:26:31.682Z,100740.00
2022-08-05T03:27:25.309Z,100741.79
2022-08-05T03:28:28.941Z,100738.30
2022-08-05T03:29:44.661Z,100744.44
2022-08-05T03:30:34.796Z,100743.58
2022-08-05T03:31:57.219Z,100736.45
2022-08-05T03:32:40.746Z,100735.59
2022-08-05T03:33:52.652Z,100737.30
2022-08-05T03:34:50.677Z,100739.95
2022-08-05T03:35:50.289Z,100737.30
2022-08-05T03:36:53.796Z,100739.95
2022-08-05T03:37:56.141Z,100730.19
2022-08-05T03:38:59.970Z,100738.08
2022-08-05T03:40:03.937Z,100736.28
2022-08-05T03:41:08.482Z,100740.73
2022-08-05T03:42:10.403Z,100736.23
2022-08-05T03:43:59.197Z,100738.87
2022-08-05T03:44:19.647Z,100735.37
2022-08-05T03:45:21.801Z,100736.23
2022-08-05T03:46:23.738Z,100745.02
2022-08-05T03:47:30.511Z,100743.27
2022-08-05T03:48:35.186Z,100730.09
2022-08-05T03:49:51.636Z,100728.30
2022-08-05T03:50:38.819Z,100734.44
2022-08-05T03:52:37.935Z,100733.53
2022-08-05T03:55:00.262Z,100736.18
2022-08-05T03:55:00.425Z,100729.15
2022-08-05T03:55:52.302Z,100737.03
2022-08-05T03:56:10.493Z,100733.53
2022-08-05T03:57:00.986Z,100730.83
2022-08-05T03:58:04.775Z,100729.92
2022-08-05T03:59:07.344Z,100727.28
2022-08-05T04:00:11.856Z,100729.88
2022-08-05T04:01:15.717Z,100724.58
2022-08-05T04:02:38.456Z,100723.59
2022-08-05T04:03:28.207Z,100723.59
2022-08-05T04:04:28.271Z,100722.63
2022-08-05T04:05:33.850Z,100719.07
2022-08-05T04:06:34.131Z,100719.92
2022-08-05T04:07:36.070Z,100717.22
2022-08-05T04:08:39.815Z,100718.96
2022-08-05T04:09:53.642Z,100719.81
2022-08-05T04:10:45.613Z,100715.41
2022-08-05T04:11:50.722Z,100712.75
2022-08-05T04:12:51.363Z,100713.59
2022-08-05T04:13:53.843Z,100717.97
2022-08-05T04:14:57.558Z,100714.38
2022-08-05T04:16:04.297Z,100717.86
2022-08-05T04:17:03.341Z,100717.86
2022-08-05T04:18:09.292Z,100712.52
2022-08-05T04:19:10.963Z,100715.05
2022-08-05T04:20:13.223Z,100714.99
2022-08-05T04:21:19.913Z,100716.70
2022-08-05T04:22:21.353Z,100713.94
2022-08-05T04:24:52.856Z,100705.09
2022-08-05T04:25:57.805Z,100702.50
2022-08-05T04:26:52.507Z,100706.83
2022-08-05T04:27:57.496Z,100700.56
2022-08-05T04:28:58.234Z,100698.72
2022-08-05T04:30:03.588Z,100698.72
2022-08-05T04:31:10.447Z,100698.66
2022-08-05T04:32:09.516Z,100694.22
2022-08-05T04:33:11.469Z,100695.95
2022-08-05T04:34:31.382Z,100687.89
2022-08-05T04:35:19.758Z,100695.84
2022-08-05T04:36:44.911Z,100688.75
2022-08-05T04:38:02.933Z,100690.42
2022-08-05T04:38:39.661Z,100691.22
2022-08-05T04:39:35.485Z,100688.52
2022-08-05T04:40:37.836Z,100685.81
2022-08-05T04:41:41.627Z,100678.69
2022-08-05T04:42:43.582Z,100688.31
2022-08-05T04:43:52.024Z,100684.66
2022-08-05T04:44:51.172Z,100677.55
2022-08-05T04:45:54.977Z,100680.92
2022-08-05T04:46:57.126Z,100687.02
2022-08-05T04:48:00.613Z,100686.91
2022-08-05T04:49:03.257Z,100683.28
2022-08-05T04:50:11.190Z,100682.38
2022-08-05T04:51:11.438Z,100690.20
2022-08-05T04:52:13.668Z,100687.43
2022-08-05T04:53:17.032Z,100690.87
2022-08-05T04:54:18.984Z,100689.84
2022-08-05T04:55:23.921Z,100695.97
2022-08-05T04:56:35.222Z,100694.14
2022-08-05T04:57:29.616Z,100691.37
2022-08-05T04:58:32.323Z,100697.40
2022-08-05T04:59:38.590Z,100698.13
2022-08-05T05:00:38.689Z,100698.05
2022-08-05T05:02:07.136Z,100704.98
2022-08-05T05:02:45.035Z,100704.87
2022-08-05T05:03:47.615Z,100705.69
2022-08-05T05:04:50.530Z,100699.38
2022-08-05T05:06:40.409Z,100702.86
2022-08-05T05:06:58.184Z,100707.15
2022-08-05T05:08:01.510Z,100707.02
2022-08-05T05:09:05.433Z,100697.23
2022-08-05T05:10:08.031Z,100695.38
2022-08-05T05:11:09.974Z,100697.97
2022-08-05T05:12:13.670Z,100703.20
2022-08-05T05:13:17.062Z,100703.14
2022-08-05T05:14:19.518Z,100706.69
2022-08-05T05:15:57.059Z,100700.43
2022-08-05T05:16:30.285Z,100700.37
2022-08-05T05:17:56.929Z,100700.30
2022-08-05T05:18:34.403Z,100699.33
2022-08-05T05:19:44.225Z,100701.85
2022-08-05T05:20:40.139Z,100698.28
2022-08-05T05:21:42.093Z,100700.81
2022-08-05T05:22:45.986Z,100699.86
2022-08-05T05:24:02.714Z,100698.88
2022-08-05T05:24:57.429Z,100709.42
2022-08-05T05:25:57.182Z,100704.94
2022-08-05T05:26:59.434Z,100706.65
2022-08-05T05:28:01.386Z,100708.32
2022-08-05T05:29:14.340Z,100710.94
2022-08-05T05:30:07.541Z,100710.03
2022-08-05T05:31:11.241Z,100709.02
2022-08-05T05:32:15.540Z,100715.98
2022-08-05T05:33:17.549Z,100705.37
2022-08-05T05:34:26.581Z,100711.47
2022-08-05T05:35:23.447Z,100714.06
2022-08-05T05:36:28.828Z,100714.87
2022-08-05T05:37:59.137Z,100707.70
2022-08-05T05:38:34.648Z,100714.69
2022-08-05T05:39:36.618Z,100714.62
2022-08-05T05:40:42.505Z,100715.41
2022-08-05T05:41:43.261Z,100707.38
2022-08-05T05:42:47.236Z,100708.20
2022-08-05T05:43:58.461Z,100701.87
2022-08-05T05:44:53.104Z,100709.70
2022-08-05T05:45:56.807Z,100706.98
2022-08-05T05:47:04.100Z,100711.30
2022-08-05T05:48:06.178Z,100709.50
2022-08-05T05:49:22.706Z,100707.66
2022-08-05T05:50:11.264Z,100716.41
2022-08-05T05:51:16.103Z,100719.00
2022-08-05T05:52:28.446Z,100712.78
2022-08-05T05:53:22.995Z,100713.56
2022-08-05T05:54:50.537Z,100718.80
2022-08-05T05:55:52.345Z,100703.83
2022-08-05T05:56:34.734Z,100717.81
2022-08-05T05:57:43.031Z,100714.24
2022-08-05T05:58:40.520Z,100719.55
2022-08-05T05:59:43.345Z,100715.09
2022-08-05T06:00:45.943Z,100714.17
2022-08-05T06:01:57.774Z,100715.02
2022-08-05T06:02:52.306Z,100715.02
2022-08-05T06:04:01.742Z,100720.27
2022-08-05T06:04:57.996Z,100724.66
2022-08-05T06:06:00.415Z,100720.20
2022-08-05T06:07:03.209Z,100728.09
2022-08-05T06:08:05.242Z,100733.41
2022-08-05T06:09:07.711Z,100738.72
2022-08-05T06:10:10.791Z,100744.03
2022-08-05T06:11:13.431Z,100749.34
2022-08-05T06:12:15.618Z,100753.73
2022-08-05T06:13:17.566Z,100756.39
2022-08-05T06:14:19.619Z,100757.23
2022-08-05T06:15:24.066Z,100755.44
2022-08-05T06:16:28.432Z,100757.23
2022-08-05T06:17:30.980Z,100765.14
2022-08-05T06:18:33.060Z,100759.77
2022-08-05T06:19:36.754Z,100751.80
2022-08-05T06:20:38.813Z,100759.70
2022-08-05T06:21:42.306Z,100762.28
2022-08-05T06:22:44.562Z,100761.44
2022-08-05T06:23:46.522Z,100765.83
2022-08-05T06:24:50.201Z,100764.88
2022-08-05T06:26:12.584Z,100771.06
2022-08-05T06:26:56.269Z,100773.66
2022-08-05T06:28:10.686Z,100767.39
2022-08-05T06:29:03.499Z,100779.79
2022-08-05T06:30:17.717Z,100774.41
2022-08-05T06:31:11.317Z,100774.34
2022-08-05T06:32:25.585Z,100781.39
2022-08-05T06:33:19.354Z,100782.31
2022-08-05T06:34:20.998Z,100782.23
2022-08-05T06:36:07.601Z,100778.73
2022-08-05T06:36:26.733Z,100786.70
2022-08-05T06:37:57.083Z,100791.06
2022-08-05T06:38:35.598Z,100783.02
2022-08-05T06:39:38.166Z,100786.56
2022-08-05T06:40:42.116Z,100777.64
2022-08-05T06:41:44.812Z,100781.19
2022-08-05T06:42:46.742Z,100782.04
2022-08-05T06:43:57.634Z,100780.23
2022-08-05T06:44:52.399Z,100774.92
2022-08-05T06:46:03.999Z,100777.58
2022-08-05T06:46:58.957Z,100778.46
2022-08-05T06:48:36.023Z,100782.83
2022-08-05T06:49:06.447Z,100781.91
2022-08-05T06:50:10.648Z,100788.07
2022-08-05T06:51:21.819Z,100788.07
2022-08-05T06:52:37.758Z,100784.49
2022-08-05T06:53:27.834Z,100798.66
2022-08-05T06:54:25.800Z,100796.00
2022-08-05T06:55:28.002Z,100792.39
2022-08-05T06:56:34.176Z,100793.28
2022-08-05T06:58:56.690Z,100795.87
2022-08-05T06:59:59.260Z,100792.39
2022-08-05T07:01:02.683Z,100796.85
2022-08-05T07:02:04.696Z,100793.34
2022-08-05T07:03:09.649Z,100796.85
2022-08-05T07:04:10.440Z,100797.70
2022-08-05T07:05:18.639Z,100794.20
2022-08-05T07:06:19.164Z,100792.45
2022-08-05T07:07:24.011Z,100796.00
2022-08-05T07:08:25.420Z,100798.66
2022-08-05T07:09:27.368Z,100792.39
2022-08-05T07:10:32.668Z,100793.34
2022-08-05T07:11:36.860Z,100801.31
2022-08-05T07:12:38.658Z,100795.12
2022-08-05T07:13:58.734Z,100792.39
2022-08-05T07:14:46.250Z,100794.13
2022-08-05T07:16:00.801Z,100794.13
2022-08-05T07:17:56.464Z,100789.67
2022-08-05T07:18:06.296Z,100794.00
2022-08-05T07:19:01.232Z,100801.05
2022-08-05T07:20:32.016Z,100799.17
2022-08-05T07:21:07.799Z,100790.28
2022-08-05T07:22:11.083Z,100793.79
2022-08-05T07:23:26.126Z,100791.06
2022-08-05T07:24:18.460Z,100798.11
2022-08-05T07:25:56.328Z,100802.47
2022-08-05T07:26:26.171Z,100798.97
2022-08-05T07:27:57.197Z,100803.36
2022-08-05T07:28:32.736Z,100807.72
2022-08-05T07:30:25.575Z,100811.27
2022-08-05T07:30:39.772Z,100813.85
2022-08-05T07:31:54.567Z,100814.70
2022-08-05T07:32:46.484Z,100811.20
2022-08-05T07:33:50.279Z,100812.83
2022-08-05T07:34:52.233Z,100807.52
2022-08-05T07:36:19.294Z,100809.25
2022-08-05T07:37:01.161Z,100803.02
2022-08-05T07:38:03.209Z,100814.50
2022-08-05T07:39:07.688Z,100807.41
2022-08-05T07:40:31.589Z,100807.41
2022-08-05T07:42:08.645Z,100811.77
2022-08-05T07:42:31.555Z,100809.05
2022-08-05T07:43:24.851Z,100807.27
2022-08-05T07:44:26.808Z,100811.70
2022-08-05T07:45:56.526Z,100806.39
2022-08-05T07:46:33.681Z,100809.86
2022-08-05T07:47:42.617Z,100808.06
2022-08-05T07:49:02.710Z,100804.48
2022-08-05T07:49:54.224Z,100811.50
2022-08-05T07:50:47.429Z,100812.31
2022-08-05T07:51:53.633Z,100814.02
2022-08-05T07:52:53.998Z,100807.78
2022-08-05T07:53:55.945Z,100817.48
2022-08-05T07:55:00.374Z,100808.56
2022-08-05T07:56:05.121Z,100808.56
2022-08-05T07:57:16.878Z,100808.49
2022-08-05T07:58:11.431Z,100804.91
2022-08-05T07:59:15.746Z,100808.42
2022-08-05T08:00:18.000Z,100803.98
2022-08-05T08:01:21.825Z,100806.58
2022-08-05T08:02:26.706Z,100806.58
2022-08-05T08:03:44.249Z,100809.23
2022-08-05T08:04:37.701Z,100806.58
2022-08-05T08:05:39.491Z,100808.28
2022-08-05T08:06:39.348Z,100802.11
2022-08-05T08:07:58.936Z,100803.84
2022-08-05T08:08:46.838Z,100808.28
2022-08-05T08:09:52.286Z,100801.26
2022-08-05T08:10:54.527Z,100802.11
2022-08-05T08:12:01.811Z,100797.65
2022-08-05T08:13:01.492Z,100795.06
2022-08-05T08:14:03.772Z,100797.72
2022-08-05T08:15:09.748Z,100796.80
2022-08-05T08:16:35.065Z,100799.45
2022-08-05T08:17:16.102Z,100800.30
2022-08-05T08:18:20.918Z,100801.19
2022-08-05T08:20:10.476Z,100797.65
2022-08-05T08:20:43.455Z,100797.65
2022-08-05T08:21:29.716Z,100800.30
2022-08-05T08:22:32.348Z,100800.30
2022-08-05T08:24:01.408Z,100798.53
2022-08-05T08:24:51.547Z,100795.88
2022-08-05T08:26:02.429Z,100794.99
2022-08-05T08:26:46.040Z,100804.70
2022-08-05T08:27:51.472Z,100799.45
2022-08-05T08:28:59.278Z,100794.99
2022-08-05T08:30:05.097Z,100799.39
2022-08-05T08:30:59.797Z,100798.53
2022-08-05T08:32:03.068Z,100795.88
2022-08-05T08:33:08.199Z,100793.22
2022-08-05T08:34:11.378Z,100788.75
2022-08-05T08:35:14.158Z,100787.83
2022-08-05T08:36:38.538Z,100787.83
2022-08-05T08:37:20.309Z,100783.36
2022-08-05T08:38:35.486Z,100780.70
2022-08-05T08:39:27.923Z,100781.59
2022-08-05T08:40:30.579Z,100784.25
2022-08-05T08:41:50.608Z,100782.44
2022-08-05T08:42:50.699Z,100784.25
2022-08-05T08:45:20.091Z,100779.78
2022-08-05T08:45:20.398Z,100787.69
2022-08-05T08:45:48.313Z,100778.79
2022-08-05T08:46:52.226Z,100784.18
2022-08-05T08:48:10.593Z,100784.95
2022-08-05T08:49:17.413Z,100784.11
2022-08-05T08:50:22.251Z,100777.91
2022-08-05T08:52:02.423Z,100776.98
2022-08-05T08:52:13.727Z,100783.15
2022-08-05T08:53:15.704Z,100780.49
2022-08-05T08:54:18.169Z,100775.14
2022-08-05T08:56:02.103Z,100774.25
2022-08-05T08:56:26.983Z,100778.61
2022-08-05T08:57:42.340Z,100777.66
2022-08-05T08:58:43.228Z,100774.92
2022-08-05T08:59:37.455Z,100776.66
2022-08-05T09:00:39.657Z,100780.98
2022-08-05T09:01:42.609Z,100779.17
2022-08-05T09:02:45.151Z,100783.49
2022-08-05T09:03:54.331Z,100777.22
2022-08-05T09:05:16.131Z,100773.64
2022-08-05T09:06:09.180Z,100775.38
2022-08-05T09:07:00.345Z,100766.44
2022-08-05T09:08:02.391Z,100767.33
2022-08-05T09:09:04.343Z,100770.83
2022-08-05T09:10:06.711Z,100767.25
2022-08-05T09:11:12.168Z,100769.84
2022-08-05T09:12:20.732Z,100765.30
2022-08-05T09:13:16.869Z,100757.24
2022-08-05T09:14:56.649Z,100758.98
2022-08-05T09:15:22.615Z,100755.39
2022-08-05T09:16:26.915Z,100755.25
2022-08-05T09:17:42.518Z,100754.36
2022-08-05T09:18:32.877Z,100751.55
2022-08-05T09:19:36.685Z,100753.30
2022-08-05T09:20:39.342Z,100750.55
2022-08-05T09:22:23.267Z,100751.33
2022-08-05T09:22:51.905Z,100750.33
2022-08-05T09:23:49.603Z,100749.33
2022-08-05T09:24:53.404Z,100755.43
2022-08-05T09:26:01.240Z,100758.02
2022-08-05T09:26:59.659Z,100748.19
2022-08-05T09:28:06.029Z,100759.60
2022-08-05T09:29:05.402Z,100743.56
2022-08-05T09:30:10.332Z,100750.55
2022-08-05T09:31:22.408Z,100751.24
2022-08-05T09:32:42.252Z,100750.23
2022-08-05T09:33:21.724Z,100752.83
2022-08-05T09:34:26.133Z,100745.62
2022-08-05T09:35:27.681Z,100742.88
2022-08-05T09:36:33.404Z,100746.38
2022-08-05T09:38:12.072Z,100745.42
2022-08-05T09:38:39.370Z,100752.32
2022-08-05T09:39:45.587Z,100750.44
2022-08-05T09:40:52.651Z,100745.03
2022-08-05T09:41:56.136Z,100748.50
2022-08-05T09:42:52.790Z,100750.20
2022-08-05T09:43:55.866Z,100751.09
2022-08-05T09:45:17.320Z,100753.67
2022-08-05T09:46:07.015Z,100750.94
2022-08-05T09:47:10.439Z,100755.22
2022-08-05T09:48:12.306Z,100754.29
2022-08-05T09:49:19.060Z,100750.70
2022-08-05T09:50:38.920Z,100746.15
2022-08-05T09:51:24.086Z,100741.63
2022-08-05T09:52:27.880Z,100743.25
2022-08-05T09:53:54.356Z,100739.66
2022-08-05T09:54:33.733Z,100737.84
2022-08-05T09:55:56.620Z,100744.91
2022-08-05T09:56:40.814Z,100740.44
2022-08-05T09:57:44.617Z,100742.16
2022-08-05T09:58:47.481Z,100737.61
2022-08-05T09:59:51.279Z,100740.27
2022-08-05T10:00:56.431Z,100737.53
2022-08-05T10:01:59.081Z,100741.00
2022-08-05T10:03:01.048Z,100735.59
2022-08-05T10:04:10.540Z,100736.37
2022-08-05T10:05:08.526Z,100737.14
2022-08-05T10:06:15.513Z,100745.08
2022-08-05T10:07:19.937Z,100741.38
2022-08-05T10:08:36.791Z,100731.60
2022-08-05T10:09:28.095Z,100731.60
2022-08-05T10:10:32.532Z,100732.37
2022-08-05T10:11:35.118Z,100735.89
2022-08-05T10:12:37.392Z,100735.89
2022-08-05T10:13:47.370Z,100734.95
2022-08-05T10:14:44.916Z,100726.97
2022-08-05T10:15:48.218Z,100731.36
2022-08-05T10:16:52.354Z,100729.63
2022-08-05T10:17:56.750Z,100730.48
2022-08-05T10:18:57.962Z,100729.63
2022-08-05T10:20:03.689Z,100731.36
2022-08-05T10:21:08.352Z,100732.22
2022-08-05T10:22:09.157Z,100725.08
2022-08-05T10:23:33.907Z,100730.41
2022-08-05T10:24:16.647Z,100729.47
2022-08-05T10:25:18.698Z,100730.32
2022-08-05T10:26:24.395Z,100725.88
2022-08-05T10:27:26.283Z,100730.32
2022-08-05T10:28:30.646Z,100723.22
2022-08-05T10:30:41.387Z,100725.00
2022-08-05T10:31:20.331Z,100732.05
2022-08-05T10:32:51.963Z,100732.05
2022-08-05T10:32:53.916Z,100734.72
2022-08-05T10:33:54.307Z,100738.31
2022-08-05T10:36:13.545Z,100738.31
2022-08-05T10:37:17.344Z,100739.44
2022-08-05T10:38:20.834Z,100739.44
2022-08-05T10:40:03.138Z,100736.69
2022-08-05T10:40:28.998Z,100742.02
2022-08-05T10:41:45.227Z,100740.20
2022-08-05T10:42:34.955Z,100740.98
2022-08-05T10:43:39.296Z,100739.27
2022-08-05T10:44:42.018Z,100734.03
2022-08-05T10:45:44.018Z,100727.81
2022-08-05T10:46:46.178Z,100728.78
2022-08-05T10:48:29.407Z,100730.48
2022-08-05T10:48:58.814Z,100726.04
2022-08-05T10:50:36.203Z,100726.89
2022-08-05T10:51:03.356Z,100726.89
2022-08-05T10:52:10.608Z,100720.71
2022-08-05T10:53:10.392Z,100725.08
2022-08-05T10:54:30.581Z,100730.48
2022-08-05T10:55:18.526Z,100721.56
2022-08-05T10:56:25.224Z,100721.48
2022-08-05T10:57:24.641Z,100717.89
2022-08-05T10:58:48.027Z,100729.31
2022-08-05T11:00:04.464Z,100729.31
2022-08-05T11:00:36.029Z,100727.50
2022-08-05T11:01:54.983Z,100728.37
2022-08-05T11:02:50.404Z,100723.82
2022-08-05T11:03:49.831Z,100721.16
2022-08-05T11:04:51.837Z,100724.67
2022-08-05T11:05:53.794Z,100723.69
2022-08-05T11:06:57.576Z,100719.22
2022-08-05T11:08:01.742Z,100717.35
2022-08-05T11:09:03.326Z,100718.12
2022-08-05T11:10:09.898Z,100721.59
2022-08-05T11:11:16.491Z,100715.30
2022-08-05T11:12:13.070Z,100723.20
2022-08-05T11:13:15.232Z,100716.86
2022-08-05T11:14:17.798Z,100714.11
2022-08-05T11:15:21.013Z,100712.22
2022-08-05T11:16:47.835Z,100708.63
2022-08-05T11:17:57.515Z,100702.27
2022-08-05T11:18:34.169Z,100702.19
2022-08-05T11:20:10.556Z,100705.63
2022-08-05T11:20:41.811Z,100703.73
2022-08-05T11:21:48.942Z,100704.52
2022-08-05T11:22:50.096Z,100704.52
2022-08-05T11:24:05.316Z,100700.84
2022-08-05T11:26:03.532Z,100691.03
2022-08-05T11:26:06.279Z,100697.13
2022-08-05T11:27:04.368Z,100691.71
2022-08-05T11:28:06.419Z,100689.93
2022-08-05T11:29:13.059Z,100691.63
2022-08-05T11:30:14.022Z,100692.51
2022-08-05T11:31:53.978Z,100691.46
2022-08-05T11:32:21.610Z,100684.27
2022-08-05T11:33:25.325Z,100689.50
2022-08-05T11:34:29.198Z,100678.77
2022-08-05T11:35:32.993Z,100681.34
2022-08-05T11:36:42.707Z,100679.44
2022-08-05T11:38:30.692Z,100675.84
2022-08-05T11:38:46.054Z,100677.48
2022-08-05T11:39:47.972Z,100677.40
2022-08-05T11:40:50.269Z,100679.02
2022-08-05T11:42:01.767Z,100685.14
2022-08-05T11:42:56.082Z,100678.84
2022-08-05T11:44:05.742Z,100685.91
2022-08-05T11:45:03.213Z,100687.58
2022-08-05T11:46:16.088Z,100681.28
2022-08-05T11:47:15.166Z,100693.67
2022-08-05T11:48:13.312Z,100682.92
2022-08-05T11:49:16.706Z,100687.23
2022-08-05T11:50:19.261Z,100685.42
2022-08-05T11:51:44.449Z,100688.00
2022-08-05T11:52:29.189Z,100686.18
2022-08-05T11:53:29.431Z,100690.48
2022-08-05T11:54:34.515Z,100691.37
2022-08-05T11:55:37.123Z,100686.89
2022-08-05T11:56:41.088Z,100689.47
2022-08-05T11:58:11.011Z,100690.41
2022-08-05T11:58:53.135Z,100686.80
2022-08-05T11:59:50.932Z,100686.89
2022-08-05T12:00:53.129Z,100686.89
2022-08-05T12:01:56.000Z,100694.72
2022-08-05T12:02:58.583Z,100690.14
2022-08-05T12:04:00.614Z,100698.05
2022-08-05T12:05:06.805Z,100690.94
2022-08-05T12:06:10.228Z,100692.55
2022-08-05T12:07:10.373Z,100696.95
2022-08-05T12:08:18.423Z,100700.47